sensor_id;sensor_type;location;lat;lon;timestamp;P1;durP1;ratioP1;P2;durP2;ratioP2
20857;SDS011;10589;53.636;10.012;2024-01-11T04:47:09;46.23;;;22.40;;
20857;SDS011;10589;53.636;10.012;2024-01-11T04:49:35;42.20;;;21.77;;
20857;SDS011;10589;53.636;10.012;2024-01-11T04:52:00;45.33;;;21.70;;
20857;SDS011;10589;53.636;10.012;2024-01-11T04:54:26;45.83;;;22.27;;
20857;SDS011;10589;53.636;10.012;2024-01-11T04:56:52;42.73;;;21.40;;
20857;SDS011;10589;53.636;10.012;2024-01-11T04:59:17;44.23;;;23.10;;
20857;SDS011;10589;53.636;10.012;2024-01-11T05:01:45;45.07;;;23.07;;
20857;SDS011;10589;53.636;10.012;2024-01-11T05:04:11;41.83;;;20.57;;
20857;SDS011;10589;53.636;10.012;2024-01-11T05:06:36;43.93;;;22.00;;
20857;SDS011;10589;53.636;10.012;2024-01-11T05:09:02;45.13;;;22.27;;
20857;SDS011;10589;53.636;10.012;2024-01-11T05:11:29;43.13;;;21.33;;
20857;SDS011;10589;53.636;10.012;2024-01-11T05:13:55;46.90;;;22.33;;
20857;SDS011;10589;53.636;10.012;2024-01-11T05:16:24;40.70;;;20.70;;
20857;SDS011;10589;53.636;10.012;2024-01-11T05:18:54;43.30;;;21.50;;
20857;SDS011;10589;53.636;10.012;2024-01-11T05:21:20;46.40;;;22.73;;
20857;SDS011;10589;53.636;10.012;2024-01-11T05:23:47;42.27;;;20.87;;
20857;SDS011;10589;53.636;10.012;2024-01-11T05:26:14;43.13;;;20.90;;
20857;SDS011;10589;53.636;10.012;2024-01-11T05:28:40;43.27;;;22.03;;
20857;SDS011;10589;53.636;10.012;2024-01-11T05:31:10;46.10;;;23.27;;
20857;SDS011;10589;53.636;10.012;2024-01-11T05:33:37;44.23;;;22.33;;
20857;SDS011;10589;53.636;10.012;2024-01-11T05:36:03;44.93;;;22.37;;
20857;SDS011;10589;53.636;10.012;2024-01-11T05:38:29;48.93;;;22.90;;
20857;SDS011;10589;53.636;10.012;2024-01-11T05:40:55;47.07;;;22.90;;
20857;SDS011;10589;53.636;10.012;2024-01-11T05:43:21;48.17;;;21.80;;
20857;SDS011;10589;53.636;10.012;2024-01-11T05:45:48;50.73;;;23.37;;
20857;SDS011;10589;53.636;10.012;2024-01-11T05:48:14;51.77;;;23.97;;
20857;SDS011;10589;53.636;10.012;2024-01-11T05:50:41;44.67;;;19.93;;
20857;SDS011;10589;53.636;10.012;2024-01-11T05:53:07;45.90;;;21.30;;
20857;SDS011;10589;53.636;10.012;2024-01-11T05:55:32;45.70;;;20.90;;
20857;SDS011;10589;53.636;10.012;2024-01-11T05:57:58;51.30;;;23.17;;
20857;SDS011;10589;53.636;10.012;2024-01-11T06:00:23;43.37;;;20.73;;
20857;SDS011;10589;53.636;10.012;2024-01-11T06:02:50;49.97;;;22.67;;
20857;SDS011;10589;53.636;10.012;2024-01-11T06:05:15;45.40;;;22.33;;
20857;SDS011;10589;53.636;10.012;2024-01-11T06:07:41;48.40;;;20.90;;
20857;SDS011;10589;53.636;10.012;2024-01-11T06:10:07;41.47;;;19.03;;
20857;SDS011;10589;53.636;10.012;2024-01-11T06:12:35;43.60;;;19.23;;
20857;SDS011;10589;53.636;10.012;2024-01-11T06:15:00;43.17;;;18.47;;
20857;SDS011;10589;53.636;10.012;2024-01-11T06:17:27;35.73;;;17.13;;
20857;SDS011;10589;53.636;10.012;2024-01-11T06:19:53;44.83;;;18.37;;
20857;SDS011;10589;53.636;10.012;2024-01-11T06:22:19;45.70;;;18.37;;
20857;SDS011;10589;53.636;10.012;2024-01-11T06:24:45;43.03;;;18.77;;
20857;SDS011;10589;53.636;10.012;2024-01-11T06:27:11;41.40;;;16.97;;
20857;SDS011;10589;53.636;10.012;2024-01-11T06:29:36;36.60;;;17.07;;
20857;SDS011;10589;53.636;10.012;2024-01-11T06:32:02;41.23;;;17.93;;
20857;SDS011;10589;53.636;10.012;2024-01-11T06:34:28;39.53;;;17.33;;
20857;SDS011;10589;53.636;10.012;2024-01-11T06:36:54;38.93;;;17.17;;
20857;SDS011;10589;53.636;10.012;2024-01-11T06:39:20;43.77;;;17.47;;
20857;SDS011;10589;53.636;10.012;2024-01-11T06:41:46;40.87;;;16.27;;
20857;SDS011;10589;53.636;10.012;2024-01-11T06:44:11;34.77;;;15.93;;
20857;SDS011;10589;53.636;10.012;2024-01-11T06:46:37;41.53;;;17.97;;
20857;SDS011;10589;53.636;10.012;2024-01-11T06:49:06;51.03;;;24.10;;
20857;SDS011;10589;53.636;10.012;2024-01-11T06:51:32;42.67;;;19.07;;
20857;SDS011;10589;53.636;10.012;2024-01-11T06:53:58;46.43;;;18.20;;
20857;SDS011;10589;53.636;10.012;2024-01-11T06:56:26;39.23;;;16.57;;
20857;SDS011;10589;53.636;10.012;2024-01-11T06:58:52;40.93;;;14.87;;
20857;SDS011;10589;53.636;10.012;2024-01-11T07:01:18;25.37;;;9.97;;
20857;SDS011;10589;53.636;10.012;2024-01-11T07:03:44;21.20;;;8.63;;
20857;SDS011;10589;53.636;10.012;2024-01-11T07:06:09;23.40;;;10.07;;
20857;SDS011;10589;53.636;10.012;2024-01-11T07:08:35;25.50;;;9.77;;
20857;SDS011;10589;53.636;10.012;2024-01-11T07:11:01;28.67;;;10.73;;
20857;SDS011;10589;53.636;10.012;2024-01-11T07:13:30;25.73;;;10.63;;
20857;SDS011;10589;53.636;10.012;2024-01-11T07:15:59;26.67;;;10.53;;
20857;SDS011;10589;53.636;10.012;2024-01-11T07:18:28;26.93;;;10.20;;
20857;SDS011;10589;53.636;10.012;2024-01-11T07:20:55;24.10;;;9.37;;
20857;SDS011;10589;53.636;10.012;2024-01-11T07:23:21;25.57;;;10.23;;
20857;SDS011;10589;53.636;10.012;2024-01-11T07:25:47;23.93;;;9.87;;
20857;SDS011;10589;53.636;10.012;2024-01-11T07:28:12;25.23;;;10.60;;
20857;SDS011;10589;53.636;10.012;2024-01-11T07:30:38;23.03;;;9.57;;
20857;SDS011;10589;53.636;10.012;2024-01-11T07:33:04;26.37;;;10.20;;
20857;SDS011;10589;53.636;10.012;2024-01-11T07:35:30;24.23;;;10.73;;
20857;SDS011;10589;53.636;10.012;2024-01-11T07:37:56;27.93;;;10.77;;
20857;SDS011;10589;53.636;10.012;2024-01-11T07:40:22;26.40;;;10.43;;
20857;SDS011;10589;53.636;10.012;2024-01-11T07:42:48;21.70;;;10.53;;
20857;SDS011;10589;53.636;10.012;2024-01-11T07:45:14;28.63;;;10.70;;
20857;SDS011;10589;53.636;10.012;2024-01-11T07:47:40;26.60;;;10.50;;
20857;SDS011;10589;53.636;10.012;2024-01-11T07:50:07;25.83;;;9.80;;
20857;SDS011;10589;53.636;10.012;2024-01-11T07:52:37;22.77;;;9.70;;
20857;SDS011;10589;53.636;10.012;2024-01-11T07:55:03;27.00;;;9.93;;
20857;SDS011;10589;53.636;10.012;2024-01-11T07:57:36;26.63;;;10.23;;
20857;SDS011;10589;53.636;10.012;2024-01-11T08:00:02;21.07;;;8.87;;
20857;SDS011;10589;53.636;10.012;2024-01-11T08:02:31;24.97;;;9.07;;
20857;SDS011;10589;53.636;10.012;2024-01-11T08:04:57;24.83;;;9.50;;
20857;SDS011;10589;53.636;10.012;2024-01-11T08:07:25;20.63;;;8.43;;
20857;SDS011;10589;53.636;10.012;2024-01-11T08:09:51;21.70;;;8.90;;
20857;SDS011;10589;53.636;10.012;2024-01-11T08:12:17;18.77;;;8.43;;
20857;SDS011;10589;53.636;10.012;2024-01-11T08:14:43;24.00;;;9.07;;
20857;SDS011;10589;53.636;10.012;2024-01-11T08:17:09;25.53;;;8.17;;
20857;SDS011;10589;53.636;10.012;2024-01-11T08:19:35;19.83;;;8.47;;
20857;SDS011;10589;53.636;10.012;2024-01-11T08:22:01;23.67;;;8.17;;
20857;SDS011;10589;53.636;10.012;2024-01-11T08:24:27;24.67;;;8.67;;
20857;SDS011;10589;53.636;10.012;2024-01-11T08:26:52;23.23;;;8.80;;
20857;SDS011;10589;53.636;10.012;2024-01-11T08:29:18;22.33;;;9.17;;
20857;SDS011;10589;53.636;10.012;2024-01-11T08:31:45;28.23;;;9.93;;
20857;SDS011;10589;53.636;10.012;2024-01-11T08:34:11;25.33;;;8.67;;
20857;SDS011;10589;53.636;10.012;2024-01-11T08:36:37;27.20;;;10.40;;
20857;SDS011;10589;53.636;10.012;2024-01-11T08:39:03;28.17;;;10.43;;
20857;SDS011;10589;53.636;10.012;2024-01-11T08:41:36;28.13;;;10.47;;
20857;SDS011;10589;53.636;10.012;2024-01-11T08:44:02;28.03;;;10.40;;
20857;SDS011;10589;53.636;10.012;2024-01-11T08:46:30;33.80;;;11.87;;
20857;SDS011;10589;53.636;10.012;2024-01-11T08:48:58;27.03;;;11.07;;
20857;SDS011;10589;53.636;10.012;2024-01-11T08:51:25;30.17;;;11.13;;
20857;SDS011;10589;53.636;10.012;2024-01-11T08:53:51;34.67;;;11.33;;
20857;SDS011;10589;53.636;10.012;2024-01-11T08:56:20;30.07;;;11.00;;
20857;SDS011;10589;53.636;10.012;2024-01-11T08:58:46;28.00;;;10.70;;
20857;SDS011;10589;53.636;10.012;2024-01-11T09:01:13;35.87;;;12.60;;
20857;SDS011;10589;53.636;10.012;2024-01-11T09:03:39;32.40;;;12.77;;
20857;SDS011;10589;53.636;10.012;2024-01-11T09:06:05;33.93;;;11.83;;
20857;SDS011;10589;53.636;10.012;2024-01-11T09:08:31;31.13;;;11.73;;
20857;SDS011;10589;53.636;10.012;2024-01-11T09:10:56;32.33;;;12.27;;
20857;SDS011;10589;53.636;10.012;2024-01-11T09:13:25;35.17;;;12.37;;
20857;SDS011;10589;53.636;10.012;2024-01-11T09:15:52;35.17;;;12.50;;
20857;SDS011;10589;53.636;10.012;2024-01-11T09:18:18;34.87;;;11.93;;
20857;SDS011;10589;53.636;10.012;2024-01-11T09:20:44;32.67;;;12.03;;
20857;SDS011;10589;53.636;10.012;2024-01-11T09:23:11;31.50;;;11.63;;
20857;SDS011;10589;53.636;10.012;2024-01-11T09:25:37;35.77;;;12.37;;
20857;SDS011;10589;53.636;10.012;2024-01-11T09:28:02;38.97;;;13.13;;
20857;SDS011;10589;53.636;10.012;2024-01-11T09:30:28;34.73;;;10.83;;
20857;SDS011;10589;53.636;10.012;2024-01-11T09:32:54;31.73;;;12.27;;
20857;SDS011;10589;53.636;10.012;2024-01-11T09:35:21;38.10;;;13.20;;
20857;SDS011;10589;53.636;10.012;2024-01-11T09:37:48;33.93;;;11.73;;
20857;SDS011;10589;53.636;10.012;2024-01-11T09:40:14;32.87;;;11.57;;
20857;SDS011;10589;53.636;10.012;2024-01-11T09:42:39;30.23;;;11.77;;
20857;SDS011;10589;53.636;10.012;2024-01-11T09:45:09;28.77;;;12.03;;
20857;SDS011;10589;53.636;10.012;2024-01-11T09:47:38;31.83;;;10.73;;
20857;SDS011;10589;53.636;10.012;2024-01-11T09:50:04;28.47;;;11.23;;
20857;SDS011;10589;53.636;10.012;2024-01-11T09:52:33;28.33;;;10.97;;
20857;SDS011;10589;53.636;10.012;2024-01-11T09:54:59;29.70;;;11.40;;
20857;SDS011;10589;53.636;10.012;2024-01-11T09:57:30;24.57;;;10.57;;
20857;SDS011;10589;53.636;10.012;2024-01-11T09:59:57;27.60;;;10.80;;
20857;SDS011;10589;53.636;10.012;2024-01-11T10:02:24;30.73;;;10.97;;
20857;SDS011;10589;53.636;10.012;2024-01-11T10:04:51;30.13;;;11.10;;
20857;SDS011;10589;53.636;10.012;2024-01-11T10:07:21;27.20;;;11.13;;
20857;SDS011;10589;53.636;10.012;2024-01-11T10:09:48;25.83;;;9.67;;
20857;SDS011;10589;53.636;10.012;2024-01-11T10:12:14;32.63;;;9.10;;
20857;SDS011;10589;53.636;10.012;2024-01-11T10:14:40;29.70;;;9.60;;
20857;SDS011;10589;53.636;10.012;2024-01-11T10:17:06;26.67;;;10.17;;
20857;SDS011;10589;53.636;10.012;2024-01-11T10:19:32;22.10;;;9.27;;
20857;SDS011;10589;53.636;10.012;2024-01-11T10:21:58;22.97;;;9.17;;
20857;SDS011;10589;53.636;10.012;2024-01-11T10:24:26;29.20;;;9.47;;
20857;SDS011;10589;53.636;10.012;2024-01-11T10:26:55;27.27;;;9.53;;
20857;SDS011;10589;53.636;10.012;2024-01-11T10:29:22;22.40;;;8.67;;
20857;SDS011;10589;53.636;10.012;2024-01-11T10:31:49;27.00;;;9.23;;
20857;SDS011;10589;53.636;10.012;2024-01-11T10:34:15;24.23;;;9.13;;
20857;SDS011;10589;53.636;10.012;2024-01-11T10:36:41;28.20;;;9.33;;
20857;SDS011;10589;53.636;10.012;2024-01-11T10:39:08;26.60;;;9.60;;
20857;SDS011;10589;53.636;10.012;2024-01-11T10:41:38;23.70;;;9.33;;
20857;SDS011;10589;53.636;10.012;2024-01-11T10:44:08;22.37;;;9.53;;
20857;SDS011;10589;53.636;10.012;2024-01-11T10:46:48;23.70;;;9.67;;
20857;SDS011;10589;53.636;10.012;2024-01-11T10:49:18;26.73;;;10.03;;
20857;SDS011;10589;53.636;10.012;2024-01-11T10:51:45;25.50;;;10.93;;
20857;SDS011;10589;53.636;10.012;2024-01-11T10:54:33;30.93;;;15.47;;
20857;SDS011;10589;53.636;10.012;2024-01-11T10:57:00;22.90;;;10.90;;
20857;SDS011;10589;53.636;10.012;2024-01-11T10:59:29;26.97;;;12.10;;
20857;SDS011;10589;53.636;10.012;2024-01-11T11:01:57;26.73;;;10.97;;
20857;SDS011;10589;53.636;10.012;2024-01-11T11:04:29;26.17;;;10.20;;
20857;SDS011;10589;53.636;10.012;2024-01-11T11:06:58;25.87;;;10.53;;
20857;SDS011;10589;53.636;10.012;2024-01-11T11:09:26;26.17;;;10.27;;
20857;SDS011;10589;53.636;10.012;2024-01-11T11:11:56;30.90;;;11.10;;
20857;SDS011;10589;53.636;10.012;2024-01-11T11:14:23;23.43;;;10.03;;
20857;SDS011;10589;53.636;10.012;2024-01-11T11:16:50;27.37;;;10.93;;
20857;SDS011;10589;53.636;10.012;2024-01-11T11:19:17;30.83;;;12.57;;
20857;SDS011;10589;53.636;10.012;2024-01-11T11:21:45;29.07;;;11.47;;
20857;SDS011;10589;53.636;10.012;2024-01-11T11:24:12;25.73;;;10.87;;
20857;SDS011;10589;53.636;10.012;2024-01-11T11:26:38;26.73;;;11.00;;
20857;SDS011;10589;53.636;10.012;2024-01-11T11:29:04;28.00;;;11.33;;
20857;SDS011;10589;53.636;10.012;2024-01-11T11:31:43;29.70;;;12.00;;
20857;SDS011;10589;53.636;10.012;2024-01-11T11:34:18;31.87;;;12.63;;
20857;SDS011;10589;53.636;10.012;2024-01-11T11:36:48;25.30;;;10.50;;
20857;SDS011;10589;53.636;10.012;2024-01-11T11:39:19;32.40;;;12.63;;
20857;SDS011;10589;53.636;10.012;2024-01-11T11:41:45;30.40;;;12.50;;
20857;SDS011;10589;53.636;10.012;2024-01-11T11:44:12;29.77;;;12.40;;
20857;SDS011;10589;53.636;10.012;2024-01-11T11:46:40;33.73;;;12.97;;
20857;SDS011;10589;53.636;10.012;2024-01-11T11:49:06;29.43;;;12.13;;
20857;SDS011;10589;53.636;10.012;2024-01-11T11:51:32;35.77;;;13.37;;
20857;SDS011;10589;53.636;10.012;2024-01-11T11:53:58;28.33;;;12.53;;
20857;SDS011;10589;53.636;10.012;2024-01-11T11:56:23;36.30;;;13.50;;
20857;SDS011;10589;53.636;10.012;2024-01-11T11:58:49;38.90;;;13.47;;
20857;SDS011;10589;53.636;10.012;2024-01-11T12:01:17;33.03;;;13.77;;
20857;SDS011;10589;53.636;10.012;2024-01-11T12:03:44;28.00;;;13.17;;
20857;SDS011;10589;53.636;10.012;2024-01-11T12:06:17;34.83;;;13.13;;
20857;SDS011;10589;53.636;10.012;2024-01-11T12:08:44;36.40;;;13.37;;
20857;SDS011;10589;53.636;10.012;2024-01-11T12:11:14;30.60;;;13.43;;
20857;SDS011;10589;53.636;10.012;2024-01-11T12:13:42;29.80;;;14.27;;
20857;SDS011;10589;53.636;10.012;2024-01-11T12:16:09;29.80;;;14.30;;
20857;SDS011;10589;53.636;10.012;2024-01-11T12:18:35;35.97;;;14.50;;
20857;SDS011;10589;53.636;10.012;2024-01-11T12:21:01;34.83;;;15.20;;
20857;SDS011;10589;53.636;10.012;2024-01-11T12:23:27;35.93;;;14.90;;
20857;SDS011;10589;53.636;10.012;2024-01-11T12:25:58;39.43;;;15.97;;
20857;SDS011;10589;53.636;10.012;2024-01-11T12:28:25;34.27;;;15.77;;
20857;SDS011;10589;53.636;10.012;2024-01-11T12:30:51;34.73;;;15.53;;
20857;SDS011;10589;53.636;10.012;2024-01-11T12:33:17;35.50;;;15.83;;
20857;SDS011;10589;53.636;10.012;2024-01-11T12:35:43;36.50;;;15.97;;
20857;SDS011;10589;53.636;10.012;2024-01-11T12:38:10;38.27;;;15.63;;
20857;SDS011;10589;53.636;10.012;2024-01-11T12:40:36;35.63;;;16.80;;
20857;SDS011;10589;53.636;10.012;2024-01-11T12:43:02;37.93;;;16.27;;
20857;SDS011;10589;53.636;10.012;2024-01-11T12:45:29;36.60;;;17.40;;
20857;SDS011;10589;53.636;10.012;2024-01-11T12:47:57;42.23;;;17.37;;
20857;SDS011;10589;53.636;10.012;2024-01-11T12:50:24;39.87;;;16.93;;
20857;SDS011;10589;53.636;10.012;2024-01-11T12:53:14;40.07;;;17.57;;
20857;SDS011;10589;53.636;10.012;2024-01-11T12:55:49;33.00;;;15.40;;
20857;SDS011;10589;53.636;10.012;2024-01-11T12:58:33;40.63;;;16.47;;
20857;SDS011;10589;53.636;10.012;2024-01-11T13:00:59;40.90;;;18.83;;
20857;SDS011;10589;53.636;10.012;2024-01-11T13:03:25;45.10;;;18.50;;
20857;SDS011;10589;53.636;10.012;2024-01-11T13:05:52;40.10;;;17.30;;
20857;SDS011;10589;53.636;10.012;2024-01-11T13:08:18;42.73;;;18.17;;
20857;SDS011;10589;53.636;10.012;2024-01-11T13:10:43;41.47;;;19.23;;
20857;SDS011;10589;53.636;10.012;2024-01-11T13:13:09;39.37;;;18.23;;
20857;SDS011;10589;53.636;10.012;2024-01-11T13:15:35;35.37;;;18.30;;
20857;SDS011;10589;53.636;10.012;2024-01-11T13:18:04;36.13;;;16.93;;
20857;SDS011;10589;53.636;10.012;2024-01-11T13:20:30;38.13;;;18.30;;
20857;SDS011;10589;53.636;10.012;2024-01-11T13:23:12;41.60;;;18.53;;
20857;SDS011;10589;53.636;10.012;2024-01-11T13:25:41;35.97;;;17.93;;
20857;SDS011;10589;53.636;10.012;2024-01-11T13:28:08;39.97;;;18.27;;
20857;SDS011;10589;53.636;10.012;2024-01-11T13:30:35;38.17;;;17.93;;
20857;SDS011;10589;53.636;10.012;2024-01-11T13:33:01;33.63;;;17.40;;
20857;SDS011;10589;53.636;10.012;2024-01-11T13:35:26;38.63;;;18.43;;
20857;SDS011;10589;53.636;10.012;2024-01-11T13:37:52;45.17;;;18.00;;
20857;SDS011;10589;53.636;10.012;2024-01-11T13:40:18;35.90;;;16.30;;
20857;SDS011;10589;53.636;10.012;2024-01-11T13:42:44;35.83;;;17.53;;
20857;SDS011;10589;53.636;10.012;2024-01-11T13:45:09;43.63;;;18.27;;
20857;SDS011;10589;53.636;10.012;2024-01-11T13:47:35;36.00;;;17.63;;
20857;SDS011;10589;53.636;10.012;2024-01-11T13:50:01;36.90;;;17.40;;
20857;SDS011;10589;53.636;10.012;2024-01-11T13:52:27;34.13;;;16.10;;
20857;SDS011;10589;53.636;10.012;2024-01-11T13:54:52;39.03;;;17.37;;
20857;SDS011;10589;53.636;10.012;2024-01-11T13:57:18;39.60;;;17.57;;
20857;SDS011;10589;53.636;10.012;2024-01-11T13:59:44;38.00;;;17.50;;
20857;SDS011;10589;53.636;10.012;2024-01-11T14:02:09;39.23;;;17.47;;
20857;SDS011;10589;53.636;10.012;2024-01-11T14:04:35;40.60;;;17.53;;
20857;SDS011;10589;53.636;10.012;2024-01-11T14:07:00;35.87;;;16.33;;
20857;SDS011;10589;53.636;10.012;2024-01-11T14:09:28;33.83;;;16.30;;
20857;SDS011;10589;53.636;10.012;2024-01-11T14:11:54;33.80;;;16.20;;
20857;SDS011;10589;53.636;10.012;2024-01-11T14:14:20;34.00;;;16.40;;
20857;SDS011;10589;53.636;10.012;2024-01-11T14:16:46;38.17;;;16.20;;
20857;SDS011;10589;53.636;10.012;2024-01-11T14:19:12;37.23;;;17.13;;
20857;SDS011;10589;53.636;10.012;2024-01-11T14:21:38;35.37;;;14.73;;
20857;SDS011;10589;53.636;10.012;2024-01-11T14:24:04;37.60;;;16.93;;
20857;SDS011;10589;53.636;10.012;2024-01-11T14:26:30;36.57;;;16.23;;
20857;SDS011;10589;53.636;10.012;2024-01-11T14:28:56;33.67;;;16.70;;
20857;SDS011;10589;53.636;10.012;2024-01-11T14:31:22;37.77;;;15.70;;
20857;SDS011;10589;53.636;10.012;2024-01-11T14:33:47;29.53;;;14.53;;
20857;SDS011;10589;53.636;10.012;2024-01-11T14:36:14;35.27;;;15.80;;
20857;SDS011;10589;53.636;10.012;2024-01-11T14:38:40;34.53;;;15.73;;
20857;SDS011;10589;53.636;10.012;2024-01-11T14:41:07;37.20;;;16.47;;
20857;SDS011;10589;53.636;10.012;2024-01-11T14:43:34;32.33;;;15.17;;
20857;SDS011;10589;53.636;10.012;2024-01-11T14:46:00;33.87;;;15.07;;
20857;SDS011;10589;53.636;10.012;2024-01-11T14:48:26;34.67;;;15.63;;
20857;SDS011;10589;53.636;10.012;2024-01-11T14:50:52;30.63;;;13.87;;
20857;SDS011;10589;53.636;10.012;2024-01-11T14:53:18;33.57;;;14.70;;
20857;SDS011;10589;53.636;10.012;2024-01-11T14:55:43;29.20;;;14.30;;
20857;SDS011;10589;53.636;10.012;2024-01-11T14:58:09;31.63;;;13.77;;
20857;SDS011;10589;53.636;10.012;2024-01-11T15:00:35;27.80;;;13.33;;
20857;SDS011;10589;53.636;10.012;2024-01-11T15:03:01;25.10;;;12.87;;
20857;SDS011;10589;53.636;10.012;2024-01-11T15:05:27;29.40;;;13.70;;
20857;SDS011;10589;53.636;10.012;2024-01-11T15:07:52;32.83;;;13.77;;
20857;SDS011;10589;53.636;10.012;2024-01-11T15:10:20;26.93;;;12.57;;
20857;SDS011;10589;53.636;10.012;2024-01-11T15:12:46;33.77;;;14.30;;
20857;SDS011;10589;53.636;10.012;2024-01-11T15:15:11;25.43;;;12.63;;
20857;SDS011;10589;53.636;10.012;2024-01-11T15:17:37;28.60;;;12.03;;
20857;SDS011;10589;53.636;10.012;2024-01-11T15:20:02;30.07;;;11.73;;
20857;SDS011;10589;53.636;10.012;2024-01-11T15:22:29;23.33;;;10.37;;
20857;SDS011;10589;53.636;10.012;2024-01-11T15:24:55;20.53;;;10.30;;
20857;SDS011;10589;53.636;10.012;2024-01-11T15:27:20;21.73;;;9.60;;
20857;SDS011;10589;53.636;10.012;2024-01-11T15:29:46;19.93;;;9.57;;
20857;SDS011;10589;53.636;10.012;2024-01-11T15:32:13;17.67;;;8.70;;
20857;SDS011;10589;53.636;10.012;2024-01-11T15:34:39;18.33;;;8.17;;
20857;SDS011;10589;53.636;10.012;2024-01-11T15:37:05;20.30;;;8.60;;
20857;SDS011;10589;53.636;10.012;2024-01-11T15:39:31;21.57;;;8.53;;
20857;SDS011;10589;53.636;10.012;2024-01-11T15:41:57;19.47;;;7.93;;
20857;SDS011;10589;53.636;10.012;2024-01-11T15:44:22;21.07;;;8.17;;
20857;SDS011;10589;53.636;10.012;2024-01-11T15:46:49;17.80;;;6.90;;
20857;SDS011;10589;53.636;10.012;2024-01-11T15:49:15;19.93;;;8.63;;
20857;SDS011;10589;53.636;10.012;2024-01-11T15:51:40;17.03;;;8.00;;
20857;SDS011;10589;53.636;10.012;2024-01-11T15:54:06;24.40;;;8.27;;
20857;SDS011;10589;53.636;10.012;2024-01-11T15:56:31;20.50;;;8.23;;
20857;SDS011;10589;53.636;10.012;2024-01-11T15:58:57;21.27;;;8.30;;
20857;SDS011;10589;53.636;10.012;2024-01-11T16:01:23;23.80;;;8.83;;
20857;SDS011;10589;53.636;10.012;2024-01-11T16:03:49;25.07;;;9.20;;
20857;SDS011;10589;53.636;10.012;2024-01-11T16:06:17;18.70;;;7.87;;
20857;SDS011;10589;53.636;10.012;2024-01-11T16:08:42;20.70;;;8.40;;
20857;SDS011;10589;53.636;10.012;2024-01-11T16:11:09;21.40;;;8.77;;
20857;SDS011;10589;53.636;10.012;2024-01-11T16:13:34;19.13;;;8.27;;
20857;SDS011;10589;53.636;10.012;2024-01-11T16:16:00;14.00;;;7.17;;
20857;SDS011;10589;53.636;10.012;2024-01-11T16:18:26;18.93;;;7.53;;
20857;SDS011;10589;53.636;10.012;2024-01-11T16:20:52;20.90;;;8.57;;
20857;SDS011;10589;53.636;10.012;2024-01-11T16:23:19;21.13;;;8.30;;
20857;SDS011;10589;53.636;10.012;2024-01-11T16:25:45;22.80;;;8.60;;
20857;SDS011;10589;53.636;10.012;2024-01-11T16:28:11;18.27;;;7.50;;
20857;SDS011;10589;53.636;10.012;2024-01-11T16:30:37;18.30;;;7.97;;
20857;SDS011;10589;53.636;10.012;2024-01-11T16:33:03;21.63;;;8.13;;
20857;SDS011;10589;53.636;10.012;2024-01-11T16:35:29;21.17;;;8.63;;
20857;SDS011;10589;53.636;10.012;2024-01-11T16:37:55;18.27;;;8.57;;
20857;SDS011;10589;53.636;10.012;2024-01-11T16:40:20;17.77;;;7.47;;
20857;SDS011;10589;53.636;10.012;2024-01-11T16:42:47;19.83;;;8.47;;
20857;SDS011;10589;53.636;10.012;2024-01-11T16:45:12;16.77;;;7.40;;
20857;SDS011;10589;53.636;10.012;2024-01-11T16:47:38;28.57;;;9.50;;
20857;SDS011;10589;53.636;10.012;2024-01-11T16:50:03;22.53;;;8.73;;
20857;SDS011;10589;53.636;10.012;2024-01-11T16:52:33;27.10;;;8.97;;
20857;SDS011;10589;53.636;10.012;2024-01-11T16:54:59;25.33;;;9.30;;
20857;SDS011;10589;53.636;10.012;2024-01-11T16:57:24;24.27;;;10.43;;
20857;SDS011;10589;53.636;10.012;2024-01-11T16:59:50;24.33;;;9.93;;
20857;SDS011;10589;53.636;10.012;2024-01-11T17:02:16;23.80;;;10.27;;
20857;SDS011;10589;53.636;10.012;2024-01-11T17:04:44;26.30;;;10.57;;
20857;SDS011;10589;53.636;10.012;2024-01-11T17:07:10;31.53;;;11.53;;
20857;SDS011;10589;53.636;10.012;2024-01-11T17:09:35;25.83;;;11.60;;
20857;SDS011;10589;53.636;10.012;2024-01-11T17:12:01;27.90;;;11.80;;
20857;SDS011;10589;53.636;10.012;2024-01-11T17:14:26;30.90;;;11.53;;
20857;SDS011;10589;53.636;10.012;2024-01-11T17:16:52;29.53;;;12.77;;
20857;SDS011;10589;53.636;10.012;2024-01-11T17:19:18;29.30;;;12.90;;
20857;SDS011;10589;53.636;10.012;2024-01-11T17:21:43;36.57;;;12.57;;
20857;SDS011;10589;53.636;10.012;2024-01-11T17:24:10;36.83;;;12.77;;
20857;SDS011;10589;53.636;10.012;2024-01-11T17:26:36;31.97;;;13.07;;
20857;SDS011;10589;53.636;10.012;2024-01-11T17:29:01;34.50;;;14.90;;
20857;SDS011;10589;53.636;10.012;2024-01-11T17:31:27;34.93;;;15.07;;
20857;SDS011;10589;53.636;10.012;2024-01-11T17:33:53;38.67;;;14.57;;
20857;SDS011;10589;53.636;10.012;2024-01-11T17:36:20;37.50;;;15.10;;
20857;SDS011;10589;53.636;10.012;2024-01-11T17:38:45;35.60;;;16.37;;
20857;SDS011;10589;53.636;10.012;2024-01-11T17:41:11;40.70;;;15.33;;
20857;SDS011;10589;53.636;10.012;2024-01-11T17:43:36;36.03;;;15.77;;
20857;SDS011;10589;53.636;10.012;2024-01-11T17:46:02;34.47;;;14.83;;
20857;SDS011;10589;53.636;10.012;2024-01-11T17:48:28;34.73;;;14.43;;
20857;SDS011;10589;53.636;10.012;2024-01-11T17:50:53;33.80;;;14.07;;
20857;SDS011;10589;53.636;10.012;2024-01-11T17:53:19;36.43;;;15.23;;
20857;SDS011;10589;53.636;10.012;2024-01-11T17:55:45;40.27;;;15.67;;
20857;SDS011;10589;53.636;10.012;2024-01-11T17:58:11;43.60;;;15.93;;
20857;SDS011;10589;53.636;10.012;2024-01-11T18:00:37;43.43;;;16.23;;
20857;SDS011;10589;53.636;10.012;2024-01-11T18:03:03;37.83;;;14.93;;
20857;SDS011;10589;53.636;10.012;2024-01-11T18:05:29;42.97;;;17.33;;
20857;SDS011;10589;53.636;10.012;2024-01-11T18:07:54;50.30;;;16.83;;
20857;SDS011;10589;53.636;10.012;2024-01-11T18:10:22;44.70;;;17.07;;
20857;SDS011;10589;53.636;10.012;2024-01-11T18:12:47;48.37;;;18.23;;
20857;SDS011;10589;53.636;10.012;2024-01-11T18:15:13;44.77;;;16.13;;
20857;SDS011;10589;53.636;10.012;2024-01-11T18:17:39;47.43;;;17.60;;
20857;SDS011;10589;53.636;10.012;2024-01-11T18:20:06;47.83;;;18.07;;
20857;SDS011;10589;53.636;10.012;2024-01-11T18:22:35;48.47;;;18.53;;
20857;SDS011;10589;53.636;10.012;2024-01-11T18:25:01;44.20;;;17.47;;
20857;SDS011;10589;53.636;10.012;2024-01-11T18:27:27;49.13;;;17.27;;
20857;SDS011;10589;53.636;10.012;2024-01-11T18:29:53;48.00;;;17.00;;
20857;SDS011;10589;53.636;10.012;2024-01-11T18:32:19;42.57;;;17.07;;
20857;SDS011;10589;53.636;10.012;2024-01-11T18:34:45;47.73;;;16.77;;
20857;SDS011;10589;53.636;10.012;2024-01-11T18:37:11;37.53;;;16.13;;
20857;SDS011;10589;53.636;10.012;2024-01-11T18:39:37;41.07;;;16.20;;
20857;SDS011;10589;53.636;10.012;2024-01-11T18:42:07;39.70;;;17.33;;
20857;SDS011;10589;53.636;10.012;2024-01-11T18:44:34;52.00;;;18.20;;
20857;SDS011;10589;53.636;10.012;2024-01-11T18:47:00;38.37;;;16.50;;
20857;SDS011;10589;53.636;10.012;2024-01-11T18:49:26;38.37;;;17.03;;
20857;SDS011;10589;53.636;10.012;2024-01-11T18:51:51;40.70;;;16.40;;
20857;SDS011;10589;53.636;10.012;2024-01-11T18:54:17;45.03;;;16.53;;